Time;durP1;ratioP1;P1;durP2;ratioP2;P2;SDS_P1;SDS_P2;PMS_P1;PMS_P2;Temp;Humidity;BMP_temperature;BMP_pressure;BME280_temperature;BME280_humidity;BME280_pressure;Samples;Min_cycle;Max_cycle;Signal;HPM_P1;HPM_P2
2022/01/23 00:00:35;;;;;;;10.43;4.60;;;6.30;99.90;;;;;;4994077;28;20053;-60
2022/01/23 00:03:05;;;;;;;10.20;4.30;;;6.30;99.90;;;;;;5011145;28;20048;-61
2022/01/23 00:05:35;;;;;;;11.07;4.60;;;6.30;99.90;;;;;;5013058;28;20387;-60
2022/01/23 00:08:02;;;;;;;8.52;3.80;;;6.20;99.90;;;;;;5010705;28;20053;-60
2022/01/23 00:10:28;;;;;;;10.63;4.22;;;6.30;99.90;;;;;;5011881;28;20103;-60
2022/01/23 00:13:06;;;;;;;14.15;4.45;;;6.30;99.90;;;;;;5004210;28;20435;-60
2022/01/23 00:18:16;;;;;;;11.05;4.20;;;6.30;99.90;;;;;;5013948;28;20106;-60
2022/01/23 00:20:42;;;;;;;15.65;5.03;;;6.30;99.90;;;;;;5030030;28;20478;-61
2022/01/23 00:23:15;;;;;;;11.50;4.72;;;6.10;99.90;;;;;;5031095;28;20089;-61
2022/01/23 00:30:20;;;;;;;8.18;3.53;;;6.30;99.90;;;;;;4995682;28;20050;-61
2022/01/23 00:31:20;;;;;;;10.75;5.07;;;6.30;99.90;;;;;;4994164;28;20049;-60
2022/01/23 00:33:45;;;;;;;10.02;3.60;;;6.30;99.90;;;;;;5003055;28;20037;-61
2022/01/23 00:36:12;;;;;;;11.63;4.15;;;6.30;99.90;;;;;;5012599;28;20485;-60
2022/01/23 00:38:38;;;;;;;11.48;4.22;;;6.50;99.90;;;;;;5013244;28;20124;-61
2022/01/23 00:41:04;;;;;;;11.40;4.00;;;6.30;99.90;;;;;;5030979;28;20479;-60
2022/01/23 00:43:32;;;;;;;11.85;4.55;;;6.70;99.90;;;;;;5030368;28;20108;-60
2022/01/23 00:46:11;;;;;;;11.52;3.80;;;7.50;99.90;;;;;;5012578;28;20037;-61
2022/01/23 00:48:42;;;;;;;9.57;3.92;;;6.30;99.90;;;;;;4995614;28;20052;-60
2022/01/23 00:51:07;;;;;;;14.82;6.78;;;6.20;99.90;;;;;;5012921;28;20057;-60
2022/01/23 00:53:33;;;;;;;11.88;6.00;;;6.20;99.90;;;;;;5013203;28;20041;-60
2022/01/23 00:55:59;;;;;;;16.90;7.20;;;6.40;99.90;;;;;;5011876;28;20509;-61
2022/01/23 00:58:24;;;;;;;15.63;5.80;;;6.20;99.90;;;;;;5013014;28;20048;-60
2022/01/23 01:00:50;;;;;;;13.20;4.13;;;6.30;99.90;;;;;;4998412;28;20046;-60
2022/01/23 01:03:16;;;;;;;9.98;3.90;;;6.30;99.90;;;;;;5015504;28;20063;-61
2022/01/23 01:05:41;;;;;;;11.77;3.80;;;6.30;99.90;;;;;;5012505;28;20102;-61
2022/01/23 01:08:07;;;;;;;12.95;4.50;;;6.20;99.90;;;;;;5013080;28;20037;-60
2022/01/23 01:10:46;;;;;;;10.90;4.78;;;6.20;99.90;;;;;;5012031;28;20054;-60
2022/01/23 01:13:13;;;;;;;11.65;4.40;;;6.30;99.90;;;;;;5015222;28;20048;-60
2022/01/23 01:31:44;;;;;;;8.48;4.03;;;6.20;99.90;;;;;;4998821;28;20053;-60
2022/01/23 01:34:16;;;;;;;10.15;3.72;;;6.20;99.90;;;;;;5012419;28;20052;-60
2022/01/23 01:36:50;;;;;;;8.65;4.00;;;6.20;99.90;;;;;;5011957;28;20037;-61
2022/01/23 01:39:22;;;;;;;9.50;3.25;;;6.20;99.90;;;;;;5011892;28;20489;-60
2022/01/23 01:41:48;;;;;;;10.13;3.75;;;6.20;99.90;;;;;;5029657;28;20066;-60
2022/01/23 01:44:15;;;;;;;11.30;4.53;;;6.20;99.90;;;;;;5012689;28;20037;-60
2022/01/23 01:46:42;;;;;;;10.38;5.15;;;6.20;99.90;;;;;;5010706;28;20042;-61
2022/01/23 01:49:08;;;;;;;7.28;3.78;;;6.20;99.90;;;;;;5012005;28;20089;-60
2022/01/23 01:51:34;;;;;;;9.07;3.72;;;7.20;99.90;;;;;;5029499;28;20046;-60
2022/01/23 01:54:09;;;;;;;7.85;3.42;;;6.20;99.90;;;;;;4995594;28;20121;-60
2022/01/23 01:56:40;;;;;;;6.77;3.20;;;6.20;99.90;;;;;;5012519;28;20367;-60
2022/01/23 02:10:05;;;;;;;8.50;3.53;;;6.10;99.90;;;;;;4992385;28;20061;-61
2022/01/23 02:13:02;;;;;;;7.13;3.10;;;6.10;99.90;;;;;;5004115;28;20053;-60
2022/01/23 02:22:30;;;;;;;7.38;3.08;;;6.20;99.90;;;;;;5011694;28;20057;-61
2022/01/23 02:56:47;;;;;;;9.95;3.15;;;6.00;99.90;;;;;;5013839;28;20481;-61
2022/01/23 02:59:22;;;;;;;7.13;3.05;;;6.00;99.90;;;;;;4998628;28;20053;-60
2022/01/23 03:04:37;;;;;;;6.80;2.88;;;6.00;99.90;;;;;;5015258;28;20386;-61
2022/01/23 03:15:09;;;;;;;7.47;3.53;;;6.00;99.90;;;;;;5031848;28;20383;-60
2022/01/23 03:26:15;;;;;;;6.80;3.13;;;6.00;99.90;;;;;;4994058;28;20081;-61
2022/01/23 03:31:26;;;;;;;7.30;3.22;;;6.00;99.90;;;;;;5011499;28;20401;-60
2022/01/23 03:33:53;;;;;;;7.55;3.35;;;6.00;99.90;;;;;;4979418;28;20077;-60
2022/01/23 03:36:19;;;;;;;7.35;3.08;;;6.00;99.90;;;;;;4995186;28;20045;-60
2022/01/23 03:38:45;;;;;;;7.90;3.10;;;6.00;99.90;;;;;;4993588;28;20041;-60
2022/01/23 03:41:11;;;;;;;6.72;2.92;;;6.30;99.90;;;;;;5014179;28;20047;-60
2022/01/23 03:43:39;;;;;;;7.88;3.42;;;6.00;99.90;;;;;;5014028;28;20053;-60
2022/01/23 03:51:36;;;;;;;8.23;3.40;;;5.90;99.90;;;;;;4999490;28;20107;-61
2022/01/23 03:54:02;;;;;;;7.25;3.13;;;6.00;99.90;;;;;;4974598;28;20047;-60
2022/01/23 03:56:30;;;;;;;9.02;3.22;;;6.00;99.90;;;;;;4958795;28;20083;-61
2022/01/23 03:58:58;;;;;;;6.97;3.65;;;6.80;99.90;;;;;;4973681;28;20051;-60
2022/01/23 04:01:24;;;;;;;9.27;4.22;;;6.00;99.90;;;;;;4975472;28;20053;-60
2022/01/23 04:03:52;;;;;;;7.13;3.90;;;6.20;99.90;;;;;;4974939;28;20045;-61
2022/01/23 04:06:17;;;;;;;7.90;4.22;;;6.00;99.90;;;;;;4974163;28;20054;-61
2022/01/23 04:08:43;;;;;;;9.05;4.50;;;6.00;99.90;;;;;;4993557;28;20482;-60
2022/01/23 04:11:08;;;;;;;11.68;4.57;;;6.00;99.90;;;;;;4994350;28;20508;-60
2022/01/23 04:14:21;;;;;;;10.93;4.45;;;6.00;99.90;;;;;;4993399;28;20471;-60
2022/01/23 05:00:12;;;;;;;7.93;4.45;;;6.00;99.90;;;;;;4992760;28;20049;-60
2022/01/23 05:03:21;;;;;;;11.27;4.70;;;6.00;99.90;;;;;;5010543;28;20057;-60
2022/01/23 05:05:33;;;;;;;12.35;4.20;;;6.00;99.90;;;;;;4993475;28;20041;-60
2022/01/23 05:08:03;;;;;;;9.38;4.68;;;6.00;99.90;;;;;;4993274;28;20110;-60
2022/01/23 05:10:29;;;;;;;9.20;4.40;;;6.00;99.90;;;;;;4992711;28;20046;-60
2022/01/23 05:12:55;;;;;;;10.25;4.57;;;6.00;99.90;;;;;;5010158;28;20091;-61
2022/01/23 05:15:21;;;;;;;9.38;4.60;;;6.00;99.90;;;;;;5003399;28;20045;-61
2022/01/23 05:17:47;;;;;;;10.30;5.38;;;6.00;99.90;;;;;;5011674;28;20121;-60
2022/01/23 05:20:15;;;;;;;14.05;6.72;;;6.00;99.90;;;;;;5030522;28;20053;-61
2022/01/23 05:22:47;;;;;;;8.85;4.72;;;6.00;99.90;;;;;;5011287;28;20486;-60
2022/01/23 05:25:26;;;;;;;11.38;4.65;;;6.00;99.90;;;;;;5030370;28;20042;-60
2022/01/23 05:27:53;;;;;;;8.43;4.20;;;6.00;99.90;;;;;;5012230;28;20037;-60
2022/01/23 05:30:19;;;;;;;10.82;4.60;;;5.90;99.90;;;;;;5011698;28;20042;-60
2022/01/23 05:32:45;;;;;;;9.45;3.90;;;5.90;99.90;;;;;;5012194;28;20049;-61
2022/01/23 05:35:14;;;;;;;9.77;5.07;;;5.90;99.90;;;;;;4994562;28;20372;-60
2022/01/23 05:37:45;;;;;;;10.02;5.30;;;5.90;99.90;;;;;;5009167;28;20084;-60
2022/01/23 05:40:14;;;;;;;9.73;4.82;;;5.90;99.90;;;;;;4993154;28;20057;-60
2022/01/23 05:42:41;;;;;;;8.02;5.03;;;5.80;99.90;;;;;;5013969;28;20044;-60
2022/01/23 05:45:08;;;;;;;8.85;4.07;;;5.90;99.90;;;;;;5011670;28;20252;-60
2022/01/23 05:47:34;;;;;;;8.93;4.90;;;5.90;99.90;;;;;;5012347;28;20120;-60
2022/01/23 05:50:00;;;;;;;8.05;4.28;;;5.80;99.90;;;;;;5012066;28;20059;-60
2022/01/23 05:52:26;;;;;;;8.77;4.45;;;5.80;99.90;;;;;;5011363;28;20049;-60
2022/01/23 05:54:52;;;;;;;10.20;5.10;;;5.80;99.90;;;;;;5011301;28;20046;-60
2022/01/23 05:57:17;;;;;;;8.55;4.80;;;5.80;99.90;;;;;;4992992;28;20046;-60
2022/01/23 05:59:43;;;;;;;9.15;4.80;;;5.80;99.90;;;;;;5008979;28;20037;-60
2022/01/23 06:02:09;;;;;;;8.88;4.93;;;5.80;99.90;;;;;;5010137;28;20459;-60
2022/01/23 06:04:34;;;;;;;8.05;4.45;;;5.80;99.90;;;;;;5010347;28;20095;-60
2022/01/23 06:07:00;;;;;;;8.15;4.32;;;5.80;99.90;;;;;;5018862;28;20068;-60
2022/01/23 06:09:27;;;;;;;6.30;3.47;;;5.80;99.90;;;;;;5011985;28;20041;-60
2022/01/23 06:11:53;;;;;;;7.90;3.88;;;5.80;99.90;;;;;;5012673;28;20489;-60
2022/01/23 06:14:19;;;;;;;9.43;4.88;;;5.80;99.90;;;;;;5010264;28;20063;-60
2022/01/23 06:16:45;;;;;;;8.15;3.95;;;5.80;99.90;;;;;;4992110;28;20057;-60
2022/01/23 06:19:11;;;;;;;10.65;4.18;;;5.90;99.90;;;;;;4991941;28;20053;-60
2022/01/23 06:21:36;;;;;;;7.45;3.63;;;5.80;99.90;;;;;;4992034;28;20077;-60
2022/01/23 06:24:13;;;;;;;8.38;4.25;;;5.80;99.90;;;;;;4991631;28;20465;-60
2022/01/23 06:26:44;;;;;;;9.65;5.22;;;5.80;99.90;;;;;;4991098;28;20042;-60
2022/01/23 06:29:11;;;;;;;8.30;4.50;;;5.80;99.90;;;;;;4991981;28;20076;-60
2022/01/23 06:31:38;;;;;;;10.70;4.63;;;5.80;99.90;;;;;;4992281;28;20045;-60
2022/01/23 06:34:05;;;;;;;7.35;3.83;;;5.90;99.90;;;;;;4991286;28;20061;-60
2022/01/23 06:36:32;;;;;;;7.80;3.90;;;6.20;99.90;;;;;;5009563;28;20042;-60
2022/01/23 06:38:59;;;;;;;8.93;3.63;;;5.90;99.90;;;;;;4997826;28;20142;-60
2022/01/23 06:41:24;;;;;;;8.38;3.95;;;5.90;99.90;;;;;;5010876;28;20041;-60
2022/01/23 06:43:50;;;;;;;9.70;4.32;;;5.90;99.90;;;;;;5011222;28;20053;-60
2022/01/23 06:46:16;;;;;;;8.32;3.70;;;5.90;99.90;;;;;;5011709;28;20509;-60
2022/01/23 06:48:41;;;;;;;9.50;4.70;;;6.70;99.90;;;;;;5027879;28;20502;-60
2022/01/23 06:51:07;;;;;;;7.38;3.90;;;5.70;99.90;;;;;;5028979;28;20038;-60
2022/01/23 06:53:33;;;;;;;15.95;7.05;;;5.80;99.90;;;;;;4992588;28;20114;-60
2022/01/23 06:55:58;;;;;;;8.63;3.88;;;5.90;99.90;;;;;;4990720;28;20057;-60
2022/01/23 06:58:24;;;;;;;10.15;5.18;;;5.90;99.90;;;;;;4991902;28;20054;-60
2022/01/23 07:00:49;;;;;;;9.90;4.72;;;5.90;99.90;;;;;;5009198;28;20117;-60
2022/01/23 07:03:15;;;;;;;9.45;4.82;;;6.50;99.90;;;;;;4990901;28;20046;-60
2022/01/23 07:05:41;;;;;;;10.05;4.65;;;5.90;99.90;;;;;;4991333;28;20038;-60
2022/01/23 07:08:07;;;;;;;10.27;5.20;;;6.10;99.90;;;;;;4994341;28;20551;-60
2022/01/23 07:10:33;;;;;;;10.70;5.28;;;5.90;99.90;;;;;;5011748;28;20513;-60
2022/01/23 07:12:58;;;;;;;9.50;5.10;;;5.90;99.90;;;;;;5011043;28;20057;-60
2022/01/23 07:15:24;;;;;;;14.13;5.85;;;5.90;99.90;;;;;;5010830;28;20861;-60
2022/01/23 07:17:50;;;;;;;10.38;5.90;;;5.90;99.90;;;;;;4994516;28;20053;-60
2022/01/23 07:20:16;;;;;;;9.10;4.60;;;5.90;99.90;;;;;;5028617;28;20052;-60
2022/01/23 07:22:42;;;;;;;7.18;3.88;;;5.80;99.90;;;;;;5008606;28;20374;-60
2022/01/23 07:25:08;;;;;;;8.13;4.53;;;5.90;99.90;;;;;;4978769;28;20034;-60
2022/01/23 07:27:45;;;;;;;8.20;3.92;;;5.80;99.90;;;;;;5000008;28;20037;-60
2022/01/23 07:30:23;;;;;;;7.45;3.70;;;5.80;99.90;;;;;;4999401;28;20393;-61
2022/01/23 07:32:49;;;;;;;6.60;3.28;;;5.80;99.90;;;;;;5011642;28;20507;-60
2022/01/23 07:35:16;;;;;;;8.13;4.40;;;5.80;99.90;;;;;;4994593;28;20077;-60
2022/01/23 07:37:41;;;;;;;5.55;3.28;;;5.80;99.90;;;;;;5007292;28;20046;-60
2022/01/23 07:40:08;;;;;;;9.75;5.10;;;5.80;99.90;;;;;;5031423;28;20086;-60
2022/01/23 07:42:34;;;;;;;12.43;5.40;;;5.80;99.90;;;;;;5002307;28;20033;-60
2022/01/23 07:45:01;;;;;;;8.80;4.57;;;5.80;99.90;;;;;;5012966;28;20048;-60
2022/01/23 07:47:27;;;;;;;9.85;5.22;;;5.80;99.90;;;;;;5013980;28;20045;-60
2022/01/23 07:49:52;;;;;;;7.97;4.10;;;5.80;99.90;;;;;;4997059;28;20076;-60
2022/01/23 07:52:19;;;;;;;9.23;4.40;;;5.80;99.90;;;;;;5013147;28;20071;-60
2022/01/23 07:54:45;;;;;;;12.15;6.28;;;5.90;99.90;;;;;;4973711;28;20095;-60
2022/01/23 07:57:11;;;;;;;10.75;6.85;;;5.80;99.90;;;;;;4977051;28;20403;-61
2022/01/23 07:59:36;;;;;;;12.35;6.85;;;5.80;99.90;;;;;;4994612;28;20060;-60
2022/01/23 08:02:02;;;;;;;11.23;6.47;;;5.80;99.90;;;;;;4993326;28;20124;-60
2022/01/23 08:04:28;;;;;;;11.20;6.78;;;5.80;99.90;;;;;;5010581;28;20049;-60
2022/01/23 08:07:08;;;;;;;9.20;5.60;;;5.60;99.90;;;;;;5011168;28;20094;-60
2022/01/23 08:09:35;;;;;;;9.75;6.15;;;6.10;99.90;;;;;;5011573;28;20084;-60
2022/01/23 08:12:00;;;;;;;9.65;6.38;;;5.60;99.90;;;;;;4994866;28;20367;-60
2022/01/23 08:14:26;;;;;;;13.10;7.78;;;6.10;99.90;;;;;;4992095;28;20049;-60
2022/01/23 08:16:52;;;;;;;10.90;7.53;;;5.80;99.90;;;;;;5011785;28;20124;-61
2022/01/23 08:19:18;;;;;;;11.50;6.93;;;5.90;99.90;;;;;;5076725;28;20050;-60
2022/01/23 08:21:43;;;;;;;10.07;5.80;;;5.90;99.90;;;;;;5076230;28;20391;-60
2022/01/23 08:24:11;;;;;;;10.80;6.28;;;5.90;99.90;;;;;;4987385;28;20080;-60
2022/01/23 08:26:37;;;;;;;13.25;8.40;;;5.90;99.90;;;;;;4988782;28;20049;-60
2022/01/23 08:29:05;;;;;;;14.73;8.60;;;5.60;99.90;;;;;;5004726;28;20479;-60
2022/01/23 08:31:30;;;;;;;9.60;6.57;;;5.80;99.90;;;;;;5022399;28;20042;-60
2022/01/23 08:33:56;;;;;;;11.70;7.00;;;5.90;99.90;;;;;;4998039;28;20053;-60
2022/01/23 08:36:22;;;;;;;7.80;4.53;;;6.20;99.90;;;;;;4988743;28;20066;-60
2022/01/23 08:38:48;;;;;;;8.35;5.28;;;5.90;99.90;;;;;;4992279;28;20094;-59
2022/01/23 08:43:58;;;;;;;15.95;7.90;;;6.10;99.90;;;;;;4996782;28;20148;-59
2022/01/23 08:46:24;;;;;;;13.18;9.75;;;6.10;99.90;;;;;;4989841;28;20134;-60
2022/01/23 08:48:50;;;;;;;10.40;7.32;;;6.10;99.90;;;;;;5007616;28;20053;-60
2022/01/23 08:51:15;;;;;;;11.13;6.75;;;6.10;99.90;;;;;;5007890;28;20046;-61
2022/01/23 08:53:41;;;;;;;9.60;6.55;;;6.10;99.90;;;;;;5019533;28;20045;-60
2022/01/23 08:56:07;;;;;;;8.75;5.05;;;6.10;99.90;;;;;;5052683;28;20125;-60
2022/01/23 08:58:33;;;;;;;7.93;5.07;;;6.10;99.90;;;;;;5009611;28;20420;-60
2022/01/23 09:00:58;;;;;;;8.07;4.82;;;6.10;99.90;;;;;;5015086;28;20052;-60
2022/01/23 09:03:24;;;;;;;9.02;4.82;;;6.20;99.90;;;;;;4981496;28;20042;-60
2022/01/23 09:05:50;;;;;;;8.10;4.82;;;6.20;99.90;;;;;;5002343;28;20098;-60
2022/01/23 09:08:16;;;;;;;8.27;5.00;;;6.20;99.90;;;;;;5077935;28;20050;-60
2022/01/23 09:10:52;;;;;;;10.93;5.68;;;6.20;99.90;;;;;;5077841;28;20046;-60
2022/01/23 09:13:32;;;;;;;9.38;5.45;;;6.20;99.90;;;;;;5010927;28;20452;-60
2022/01/23 09:15:59;;;;;;;10.55;5.15;;;6.00;99.90;;;;;;5009337;28;20050;-60
2022/01/23 09:18:25;;;;;;;10.23;5.70;;;6.20;99.90;;;;;;5049528;28;20444;-60
2022/01/23 09:21:00;;;;;;;10.32;6.05;;;6.30;99.90;;;;;;4984232;28;20038;-60
2022/01/23 09:23:25;;;;;;;8.45;5.38;;;6.30;99.90;;;;;;4984509;28;20042;-60
2022/01/23 09:25:51;;;;;;;8.13;5.40;;;6.00;99.90;;;;;;5057491;28;20061;-61
2022/01/23 09:28:19;;;;;;;9.00;4.75;;;6.30;99.90;;;;;;4987728;28;20041;-61
2022/01/23 09:30:51;;;;;;;8.68;4.18;;;6.30;99.90;;;;;;4991508;28;20034;-61
2022/01/23 09:33:23;;;;;;;12.02;5.20;;;6.40;99.90;;;;;;4992718;28;20121;-61
2022/01/23 09:35:48;;;;;;;10.02;4.25;;;6.40;99.90;;;;;;5008951;28;20054;-61
2022/01/23 09:38:14;;;;;;;9.02;4.80;;;6.40;99.90;;;;;;4992778;28;20046;-60
2022/01/23 09:40:42;;;;;;;7.15;3.85;;;6.50;99.90;;;;;;4992280;28;20168;-61
2022/01/23 09:43:15;;;;;;;8.68;4.35;;;6.50;99.90;;;;;;4991673;28;20226;-61
2022/01/23 09:45:44;;;;;;;9.00;4.90;;;6.50;99.90;;;;;;4992040;28;20057;-61
2022/01/23 09:48:11;;;;;;;7.90;4.93;;;6.50;99.90;;;;;;4960847;28;20155;-61
2022/01/23 09:50:37;;;;;;;7.22;4.25;;;6.50;99.90;;;;;;4991702;28;20058;-61
2022/01/23 09:53:03;;;;;;;7.38;3.90;;;6.50;99.90;;;;;;4992113;28;20049;-61
2022/01/23 09:55:32;;;;;;;6.03;3.38;;;6.60;99.90;;;;;;4992596;28;20098;-61
2022/01/23 09:57:59;;;;;;;6.97;3.88;;;6.60;99.90;;;;;;4991160;28;20057;-61
2022/01/23 10:00:28;;;;;;;7.88;3.97;;;6.60;99.90;;;;;;4992577;28;20042;-61
2022/01/23 10:02:54;;;;;;;7.75;4.07;;;6.60;99.90;;;;;;4991637;28;20053;-61
2022/01/23 10:05:21;;;;;;;7.95;4.25;;;6.70;99.90;;;;;;4991703;28;20041;-61
2022/01/23 10:07:47;;;;;;;9.18;4.28;;;6.70;99.90;;;;;;4991866;28;20071;-61
2022/01/23 10:10:22;;;;;;;9.75;4.80;;;6.70;99.90;;;;;;4992445;28;20038;-61
2022/01/23 10:12:50;;;;;;;8.30;3.17;;;6.80;99.90;;;;;;4991451;28;20053;-61
2022/01/23 10:15:18;;;;;;;9.40;3.47;;;6.70;99.90;;;;;;4976076;28;20052;-61
2022/01/23 10:17:44;;;;;;;8.00;3.28;;;6.80;99.90;;;;;;5009298;28;20394;-61
2022/01/23 10:20:12;;;;;;;6.90;3.03;;;6.80;99.90;;;;;;4991534;28;20038;-61
2022/01/23 10:22:41;;;;;;;6.05;3.50;;;6.80;99.90;;;;;;5009816;28;20506;-61
2022/01/23 10:25:13;;;;;;;9.30;3.50;;;7.20;99.90;;;;;;4991340;28;20045;-61
2022/01/23 10:28:02;;;;;;;9.52;4.03;;;7.50;99.90;;;;;;4991656;28;20045;-61
2022/01/23 10:30:41;;;;;;;6.90;3.90;;;6.90;99.90;;;;;;4991964;28;20113;-61
2022/01/23 10:33:10;;;;;;;8.02;4.68;;;6.80;99.90;;;;;;4975164;28;20128;-61
2022/01/23 10:36:05;;;;;;;9.02;4.25;;;6.70;99.90;;;;;;4992380;28;20125;-61
2022/01/23 10:38:50;;;;;;;9.38;4.40;;;6.90;99.90;;;;;;4975842;28;20046;-61
2022/01/23 10:49:46;;;;;;;11.13;4.15;;;6.90;99.90;;;;;;4991334;28;20058;-61
2022/01/23 10:52:26;;;;;;;7.43;4.38;;;6.90;99.90;;;;;;4991996;28;20390;-61
2022/01/23 10:54:52;;;;;;;10.68;4.43;;;6.90;99.90;;;;;;5008017;28;20054;-61
2022/01/23 10:57:18;;;;;;;11.70;4.50;;;6.60;99.90;;;;;;5009445;28;20379;-61
2022/01/23 10:59:45;;;;;;;9.05;4.00;;;6.90;99.90;;;;;;4993980;28;20038;-61
2022/01/23 11:02:15;;;;;;;10.80;4.05;;;7.00;99.90;;;;;;4994500;28;20056;-61
2022/01/23 11:04:54;;;;;;;9.38;4.10;;;7.00;99.90;;;;;;4978507;28;20080;-61
2022/01/23 11:07:21;;;;;;;8.88;4.00;;;7.00;99.90;;;;;;4994313;28;20042;-61
2022/01/23 11:09:47;;;;;;;10.40;4.15;;;7.10;99.90;;;;;;4994422;28;20061;-61
2022/01/23 11:17:59;;;;;;;11.52;4.68;;;7.10;99.90;;;;;;4994322;28;20046;-61
2022/01/23 11:20:30;;;;;;;8.82;4.10;;;7.10;99.90;;;;;;4994945;28;20050;-61
2022/01/23 11:23:16;;;;;;;10.50;4.80;;;7.00;99.90;;;;;;5011306;28;20042;-61
2022/01/23 11:25:52;;;;;;;11.18;4.68;;;7.20;99.90;;;;;;4994186;28;20042;-61
2022/01/23 11:28:18;;;;;;;10.35;5.13;;;7.00;99.90;;;;;;4994487;28;20508;-61
2022/01/23 11:30:48;;;;;;;12.15;4.35;;;7.20;99.90;;;;;;5011912;28;20048;-61
2022/01/23 11:33:17;;;;;;;8.95;4.05;;;7.10;99.90;;;;;;4978596;28;20077;-61
2022/01/23 11:35:44;;;;;;;15.10;4.28;;;7.20;99.90;;;;;;5010966;28;20041;-61
2022/01/23 11:38:13;;;;;;;9.13;4.38;;;7.20;99.90;;;;;;4994907;28;20478;-61
2022/01/23 11:50:39;;;;;;;11.23;4.20;;;7.20;99.90;;;;;;4994079;28;20049;-61
2022/01/23 11:55:35;;;;;;;7.68;4.30;;;7.20;99.90;;;;;;5073726;28;20148;-61
2022/01/23 11:58:04;;;;;;;8.95;4.18;;;7.20;99.90;;;;;;5073414;28;20075;-61
2022/01/23 12:00:32;;;;;;;8.85;4.60;;;7.10;99.90;;;;;;5057049;28;20041;-61
2022/01/23 12:03:16;;;;;;;10.07;3.90;;;7.20;99.90;;;;;;5074194;28;20400;-61
2022/01/23 12:05:45;;;;;;;10.23;4.72;;;7.10;99.90;;;;;;5072115;28;20157;-61
2022/01/23 12:08:30;;;;;;;9.98;4.32;;;7.10;99.90;;;;;;5074837;28;20036;-61
2022/01/23 12:16:27;;;;;;;9.93;4.53;;;7.20;99.90;;;;;;5073445;28;20045;-61
2022/01/23 12:19:18;;;;;;;11.18;5.05;;;7.20;99.90;;;;;;5072251;28;20094;-61
2022/01/23 12:21:45;;;;;;;10.48;4.25;;;7.30;99.90;;;;;;5072560;28;20055;-61
2022/01/23 12:24:14;;;;;;;10.13;4.50;;;7.10;99.90;;;;;;5073412;28;20048;-61
2022/01/23 12:26:43;;;;;;;11.88;5.53;;;7.20;99.90;;;;;;5071496;28;20055;-61
2022/01/23 12:29:13;;;;;;;9.55;4.00;;;7.30;99.90;;;;;;5073069;28;20048;-61
2022/01/23 12:31:40;;;;;;;7.88;3.92;;;7.50;99.90;;;;;;5071465;28;20127;-61
2022/01/23 12:34:06;;;;;;;8.13;4.20;;;7.10;99.90;;;;;;5072933;28;20043;-61
2022/01/23 12:36:34;;;;;;;10.50;4.93;;;7.30;99.90;;;;;;5072870;28;20119;-61
2022/01/23 12:39:09;;;;;;;8.75;4.65;;;7.50;99.90;;;;;;5071647;28;20055;-61
2022/01/23 12:41:57;;;;;;;11.73;4.50;;;7.30;99.90;;;;;;5055763;28;20040;-61
2022/01/23 12:44:22;;;;;;;11.73;5.35;;;7.40;99.90;;;;;;5072588;28;20059;-61
2022/01/23 12:46:51;;;;;;;7.93;4.15;;;7.40;99.90;;;;;;5071367;28;20048;-61
2022/01/23 12:49:28;;;;;;;10.13;4.32;;;7.40;99.90;;;;;;5072311;28;20049;-61
2022/01/23 12:52:07;;;;;;;9.15;4.45;;;7.40;99.90;;;;;;5071892;28;20444;-61
2022/01/23 12:54:36;;;;;;;8.10;3.80;;;7.20;99.90;;;;;;5071605;28;20049;-61
2022/01/23 12:57:07;;;;;;;8.70;4.55;;;7.70;99.90;;;;;;5071637;28;20472;-61
2022/01/23 12:59:35;;;;;;;13.55;4.70;;;7.50;99.90;;;;;;5072688;28;20052;-61
2022/01/23 13:02:03;;;;;;;9.60;4.53;;;7.50;99.90;;;;;;5070833;28;20524;-61
2022/01/23 13:04:34;;;;;;;9.60;4.07;;;7.60;99.90;;;;;;5072194;28;20051;-61
2022/01/23 13:07:10;;;;;;;8.95;4.18;;;7.50;99.90;;;;;;5070636;28;20519;-61
2022/01/23 13:09:51;;;;;;;8.35;5.13;;;7.50;99.90;;;;;;5072231;28;20485;-61
2022/01/23 13:32:01;;;;;;;9.32;4.35;;;7.50;99.90;;;;;;5072029;28;20052;-61
2022/01/23 13:34:31;;;;;;;7.32;3.70;;;7.70;99.90;;;;;;5071261;28;20048;-61
2022/01/23 13:36:58;;;;;;;6.87;4.20;;;7.50;99.90;;;;;;5070684;28;20052;-61
2022/01/23 13:39:28;;;;;;;8.20;4.45;;;7.50;99.90;;;;;;5072754;28;20300;-61
2022/01/23 13:42:20;;;;;;;9.10;4.50;;;7.50;99.90;;;;;;5070656;28;20059;-60
2022/01/23 13:53:52;;;;;;;7.57;3.72;;;7.50;99.90;;;;;;5038643;28;20059;-61
2022/01/23 13:59:20;;;;;;;9.57;5.00;;;7.30;99.90;;;;;;5071273;28;20048;-61
2022/01/23 14:02:06;;;;;;;7.75;4.07;;;7.50;99.90;;;;;;5071164;28;20362;-61
2022/01/23 14:04:36;;;;;;;;;;;7.60;99.90;;;;;;5070903;28;20120;-61
2022/01/23 14:07:02;;;;;;;8.57;4.00;;;7.40;99.90;;;;;;5070729;28;19920;-61
2022/01/23 14:09:27;;;;;;;9.45;5.20;;;7.20;99.90;;;;;;5071443;28;20090;-61
2022/01/23 14:11:54;;;;;;;9.98;4.28;;;8.20;99.90;;;;;;5070176;28;20477;-61
2022/01/23 14:14:26;;;;;;;6.78;3.70;;;7.50;99.90;;;;;;5071132;28;20123;-61
2022/01/23 14:16:54;;;;;;;9.38;4.00;;;7.40;99.90;;;;;;5070729;28;20063;-61
2022/01/23 14:19:26;;;;;;;9.35;5.00;;;7.50;99.90;;;;;;5070252;28;20116;-61
2022/01/23 14:21:57;;;;;;;9.35;5.72;;;7.30;99.90;;;;;;5071674;28;20080;-61
2022/01/23 14:24:28;;;;;;;11.95;6.07;;;7.50;99.90;;;;;;5071618;28;20032;-61
2022/01/23 14:27:09;;;;;;;12.95;5.43;;;7.40;99.90;;;;;;5070784;28;20528;-61
2022/01/23 14:29:49;;;;;;;8.43;4.93;;;7.40;99.90;;;;;;5072112;28;20041;-61
2022/01/23 14:32:24;;;;;;;8.30;5.50;;;7.30;99.90;;;;;;5070117;28;20059;-61
2022/01/23 14:34:49;;;;;;;11.98;7.72;;;7.40;99.90;;;;;;5074101;28;20052;-60
2022/01/23 14:37:25;;;;;;;14.50;8.70;;;7.40;99.90;;;;;;5076339;28;20467;-61
2022/01/23 14:40:06;;;;;;;15.77;8.48;;;7.20;99.90;;;;;;5073820;28;20543;-61
2022/01/23 14:42:31;;;;;;;11.25;6.88;;;7.20;99.90;;;;;;5075132;28;20046;-61
2022/01/23 14:44:57;;;;;;;11.38;6.25;;;7.50;99.90;;;;;;5074259;28;20044;-61
2022/01/23 14:47:22;;;;;;;9.18;5.78;;;7.40;99.90;;;;;;5075457;28;20120;-61
2022/01/23 14:49:49;;;;;;;10.18;5.70;;;7.40;99.90;;;;;;5035977;28;20054;-61
2022/01/23 14:52:15;;;;;;;12.77;5.68;;;7.60;99.90;;;;;;4994566;28;20049;-61
2022/01/23 14:54:41;;;;;;;11.65;5.90;;;7.40;99.90;;;;;;4994741;28;20091;-61
2022/01/23 14:57:12;;;;;;;10.57;6.15;;;7.40;99.90;;;;;;5013052;28;20120;-61
2022/01/23 14:59:37;;;;;;;9.05;5.60;;;7.30;99.90;;;;;;4994884;28;20112;-61
2022/01/23 15:02:06;;;;;;;9.45;4.97;;;7.40;99.90;;;;;;4994439;28;20513;-61
2022/01/23 15:04:46;;;;;;;10.38;5.80;;;7.70;99.90;;;;;;4995463;28;20050;-61
2022/01/23 15:07:17;;;;;;;10.63;6.72;;;7.80;99.90;;;;;;4994501;28;20432;-61
2022/01/23 15:09:48;;;;;;;9.18;6.25;;;7.30;99.90;;;;;;4994739;28;20046;-61
2022/01/23 15:12:15;;;;;;;11.85;6.28;;;7.30;99.90;;;;;;4979010;28;20042;-61
2022/01/23 15:14:41;;;;;;;11.48;5.20;;;7.40;99.90;;;;;;5011254;28;20042;-61
2022/01/23 15:17:07;;;;;;;7.78;5.15;;;7.20;99.90;;;;;;4995006;28;20091;-62
2022/01/23 15:19:34;;;;;;;9.68;6.10;;;7.20;99.90;;;;;;4973341;28;20042;-62
2022/01/23 15:22:00;;;;;;;9.80;5.50;;;7.40;99.90;;;;;;4992055;28;20049;-61
2022/01/23 15:24:26;;;;;;;12.75;5.72;;;7.20;99.90;;;;;;4993261;28;20046;-60
2022/01/23 15:26:52;;;;;;;8.93;5.60;;;7.40;99.90;;;;;;5012319;28;20113;-62
2022/01/23 15:29:17;;;;;;;9.98;5.70;;;7.20;99.90;;;;;;4992640;28;20116;-61
2022/01/23 15:31:43;;;;;;;8.07;4.72;;;7.20;99.90;;;;;;4987040;28;20037;-60
2022/01/23 15:34:09;;;;;;;11.05;5.35;;;7.40;99.90;;;;;;5009315;28;20049;-62
2022/01/23 15:36:36;;;;;;;9.45;5.22;;;7.20;99.90;;;;;;5028675;28;20038;-62
2022/01/23 15:39:05;;;;;;;11.30;6.60;;;7.20;99.90;;;;;;4985386;28;20041;-62
2022/01/23 15:41:31;;;;;;;11.13;5.72;;;7.10;99.90;;;;;;4992385;28;20445;-62
2022/01/23 15:43:57;;;;;;;12.98;6.22;;;7.30;99.90;;;;;;4974173;28;20046;-62
2022/01/23 15:46:23;;;;;;;10.40;5.43;;;7.20;99.90;;;;;;5005329;28;20061;-62
2022/01/23 15:48:49;;;;;;;10.23;6.53;;;7.50;99.90;;;;;;5075624;28;20056;-62
2022/01/23 15:51:15;;;;;;;14.65;7.65;;;6.80;99.90;;;;;;5081510;28;20036;-62
2022/01/23 15:53:41;;;;;;;13.35;7.75;;;7.00;99.90;;;;;;5073107;28;20047;-62
2022/01/23 15:56:06;;;;;;;13.95;8.63;;;7.10;99.90;;;;;;5073022;28;20044;-62
2022/01/23 15:59:17;;;;;;;16.50;8.88;;;7.30;99.90;;;;;;5058672;28;20507;-62
2022/01/23 16:01:46;;;;;;;15.45;7.28;;;7.00;99.90;;;;;;5060217;28;20631;-62
2022/01/23 16:04:13;;;;;;;17.25;8.13;;;7.10;99.90;;;;;;5043908;28;20036;-62
2022/01/23 16:06:39;;;;;;;18.33;10.20;;;7.10;99.90;;;;;;5042198;28;20165;-62
2022/01/23 16:09:06;;;;;;;17.45;8.77;;;7.10;99.90;;;;;;5061450;28;20048;-62
2022/01/23 16:11:32;;;;;;;14.23;7.43;;;7.00;99.90;;;;;;5050767;28;20040;-62
2022/01/23 16:13:57;;;;;;;14.23;7.55;;;7.20;99.90;;;;;;5052043;28;20393;-62
2022/01/23 16:16:23;;;;;;;11.68;4.88;;;7.20;99.90;;;;;;5050525;28;20045;-62
2022/01/23 16:18:49;;;;;;;13.77;6.68;;;7.00;99.90;;;;;;5051221;28;20048;-62
2022/01/23 16:21:15;;;;;;;12.52;6.82;;;7.00;99.90;;;;;;5052228;28;20482;-62
2022/01/23 16:23:41;;;;;;;13.00;7.50;;;7.10;99.90;;;;;;5050411;28;20440;-62
2022/01/23 16:26:06;;;;;;;18.48;8.85;;;7.00;99.90;;;;;;5039578;28;20048;-61
2022/01/23 16:28:33;;;;;;;16.92;8.15;;;7.00;99.90;;;;;;5062402;28;20063;-61
2022/01/23 16:30:59;;;;;;;22.10;9.88;;;7.00;99.90;;;;;;5060326;28;20626;-61